Observation data for Ralls on 02/10/2018      Previous  Date       Current Mesonet Observations  Soil Data  Daily Summary Page  Observations in Plain Language
KRLS 100600Z 07010KT 01/M09 A2994 RMK A01 T00141086  RH  048%=      5-min Rain = 0
KRLS 100605Z 06009KT 01/M09 A2994 RMK A01 T00121087  RH  048%=      5-min Rain = 0
KRLS 100610Z 06011KT 01/M09 A2994 RMK A01 T00111089  RH  048%=      5-min Rain = 0
KRLS 100615Z 06012KT 01/M09 A2995 RMK A01 T00101091  RH  047%=      5-min Rain = 0
KRLS 100620Z 05013KT 01/M09 A2995 RMK A01 T00081093  RH  048%=      5-min Rain = 0
KRLS 100625Z 06013KT 01/M09 A2995 RMK A01 T00051094  RH  048%=      5-min Rain = 0
KRLS 100630Z 05012KT 00/M10 A2996 RMK A01 T00041095  RH  048%=      5-min Rain = 0
KRLS 100635Z 05011KT 00/M10 A2997 RMK A01 T00031096  RH  048%=      5-min Rain = 0
KRLS 100640Z 05012KT 00/M10 A2997 RMK A01 T00021096  RH  048%=      5-min Rain = 0
KRLS 100645Z 04012KT 00/10 A2997 RMK A01 T00000-97  RH  048%=      5-min Rain = 0
KRLS 100650Z 04014KT M00/M10 A2997 RMK A01 T10021097  RH  049%=      5-min Rain = 0
KRLS 100655Z 04013KT M00/M10 A2998 RMK A01 T10031098  RH  050%=      5-min Rain = 0
KRLS 100700Z 04012KT M01/M10 A2998 RMK A01 T10051098  RH  050%=      5-min Rain = 0
KRLS 100705Z 05015G21KT M01/M10 A2998 RMK A01 T10061099  RH  050%=      5-min Rain = 0
KRLS 100710Z 04016G22KT M01/M10 A2998 RMK A01 T10081100  RH  050%=      5-min Rain = 0
KRLS 100715Z 05016KT M01/M10 A2998 RMK A01 T10101101  RH  051%=      5-min Rain = 0
KRLS 100720Z 04016KT M01/M10 A2999 RMK A01 T10131104  RH  051%=      5-min Rain = 0
KRLS 100725Z 04016KT M02/M11 A2999 RMK A01 T10161106  RH  051%=      5-min Rain = 0
KRLS 100730Z 04017KT M02/M11 A2999 RMK A01 T10181107  RH  051%=      5-min Rain = 0
KRLS 100735Z 04015G20KT M02/M11 A2999 RMK A01 T10201108  RH  052%=      5-min Rain = 0
KRLS 100740Z 03017G22KT M02/M11 A2999 RMK A01 T10221108  RH  052%=      5-min Rain = 0
KRLS 100745Z 03018G23KT M02/M11 A2999 RMK A01 T10231109  RH  052%=      5-min Rain = 0
KRLS 100750Z 03019G26KT M03/M11 A2999 RMK A01 T10261110  RH  053%=      5-min Rain = 0
KRLS 100755Z 03019KT M03/M11 A2999 RMK A01 T10271111  RH  053%=      5-min Rain = 0
KRLS 100800Z 03020G25KT M03/M11 A2999 RMK A01 T10291111  RH  054%=      5-min Rain = 0
KRLS 100805Z 04019KT M03/M11 A2999 RMK A01 T10301113  RH  054%=      5-min Rain = 0
KRLS 100810Z 04020G25KT M03/M11 A2999 RMK A01 T10321114  RH  054%=      5-min Rain = 0
KRLS 100815Z 03019G24KT M03/M11 A2999 RMK A01 T10331114  RH  054%=      5-min Rain = 0
KRLS 100820Z 03019KT M03/M11 A2999 RMK A01 T10341114  RH  054%=      5-min Rain = 0
KRLS 100825Z 03019G24KT M04/M12 A2999 RMK A01 T10351115  RH  055%=      5-min Rain = 0
KRLS 100830Z 03019G26KT M04/M12 A2999 RMK A01 T10351115  RH  055%=      5-min Rain = 0
KRLS 100835Z 03018G23KT M04/M12 A2999 RMK A01 T10361115  RH  055%=      5-min Rain = 0
KRLS 100840Z 03020G26KT M04/M12 A2999 RMK A01 T10371115  RH  055%=      5-min Rain = 0
KRLS 100845Z 03019G24KT M04/M12 A2999 RMK A01 T10381116  RH  056%=      5-min Rain = 0
KRLS 100850Z 03019KT M04/M12 A2999 RMK A01 T10391116  RH  056%=      5-min Rain = 0
KRLS 100855Z 03017G25KT M04/M12 A2999 RMK A01 T10401116  RH  056%=      5-min Rain = 0
KRLS 100900Z 03018G23KT M04/M12 A2999 RMK A01 T10411117  RH  056%=      5-min Rain = 0
KRLS 100905Z 03016KT M04/M12 A2998 RMK A01 T10421117  RH  057%=      5-min Rain = 0
KRLS 100910Z 03016G22KT M04/M12 A2999 RMK A01 T10431118  RH  057%=      5-min Rain = 0
KRLS 100915Z 02018G24KT M04/M12 A2998 RMK A01 T10441118  RH  057%=      5-min Rain = 0
KRLS 100920Z 02019KT M05/M12 A2999 RMK A01 T10471120  RH  057%=      5-min Rain = 0
KRLS 100925Z 02020G25KT M05/M12 A2999 RMK A01 T10491121  RH  058%=      5-min Rain = 0
KRLS 100930Z 02019G27KT M05/M12 A2999 RMK A01 T10511123  RH  058%=      5-min Rain = 0
KRLS 100935Z 02019G25KT M05/M12 A2999 RMK A01 T10521123  RH  058%=      5-min Rain = 0
KRLS 100940Z 03019G24KT M05/M12 A2999 RMK A01 T10541124  RH  058%=      5-min Rain = 0
KRLS 100945Z 02021G27KT M06/M13 A2999 RMK A01 T10551125  RH  059%=      5-min Rain = 0
KRLS 100950Z 02020G26KT M06/M13 A2999 RMK A01 T10561125  RH  059%=      5-min Rain = 0
KRLS 100955Z 02019G25KT M06/M13 A2999 RMK A01 T10571126  RH  059%=      5-min Rain = 0
KRLS 101000Z 02018G24KT M06/M13 A2999 RMK A01 T10591126  RH  060%=      5-min Rain = 0
KRLS 101005Z 03019KT M06/M13 A30 RMK A01 T10591126  RH  060%=      5-min Rain = 0
KRLS 101010Z 03016KT M06/M13 A30 RMK A01 T10611127  RH  060%=      5-min Rain = 0
KRLS 101015Z 02014G19KT M06/M13 A30 RMK A01 T10621128  RH  060%=      5-min Rain = 0
KRLS 101020Z 02017G23KT M06/M13 A3001 RMK A01 T10631129  RH  061%=      5-min Rain = 0
KRLS 101025Z 02015G20KT M07/M13 A3001 RMK A01 T10651129  RH  061%=      5-min Rain = 0
KRLS 101030Z 02014G21KT M07/M13 A3001 RMK A01 T10661130  RH  061%=      5-min Rain = 0
KRLS 101035Z 02019G24KT M07/M13 A3001 RMK A01 T10681130  RH  062%=      5-min Rain = 0
KRLS 101040Z 03017KT M07/M13 A3001 RMK A01 T10691130  RH  063%=      5-min Rain = 0
KRLS 101045Z 03019KT M07/M13 A3001 RMK A01 T10711131  RH  063%=      5-min Rain = 0
KRLS 101050Z 03015KT M07/M13 A3001 RMK A01 T10721131  RH  063%=      5-min Rain = 0
KRLS 101055Z 02015G21KT M07/M13 A3002 RMK A01 T10721132  RH  064%=      5-min Rain = 0
KRLS 101100Z 02017G23KT M07/M13 A3001 RMK A01 T10731132  RH  064%=      5-min Rain = 0
KRLS 101105Z 02015KT M07/M13 A3002 RMK A01 T10741132  RH  064%=      5-min Rain = 0
KRLS 101110Z 02013G18KT M08/M13 A3002 RMK A01 T10751133  RH  064%=      5-min Rain = 0
KRLS 101115Z 02014KT M08/M13 A3001 RMK A01 T10761133  RH  064%=      5-min Rain = 0
KRLS 101120Z 02015G21KT M08/M13 A3001 RMK A01 T10761133  RH  065%=      5-min Rain = 0
KRLS 101125Z 02016KT M08/M13 A3001 RMK A01 T10771133  RH  065%=      5-min Rain = 0
KRLS 101130Z 02016KT M08/M13 A30 RMK A01 T10771133  RH  065%=      5-min Rain = 0
KRLS 101135Z 02015G20KT M08/M13 A30 RMK A01 T10781134  RH  065%=      5-min Rain = 0
KRLS 101140Z 02013KT M08/M13 A30 RMK A01 T10791134  RH  065%=      5-min Rain = 0
KRLS 101145Z 02014G19KT M08/M13 A30 RMK A01 T10791134  RH  066%=      5-min Rain = 0
KRLS 101150Z 02013KT M08/M13 A3001 RMK A01 T10801134  RH  066%=      5-min Rain = 0
KRLS 101155Z 02012KT M08/M13 A3001 RMK A01 T10801134  RH  066%=      5-min Rain = 0
KRLS 101200Z 01012G17KT M08/M13 A3001 RMK A01 T10811134  RH  067%=      5-min Rain = 0
KRLS 101205Z 01010G15KT M08/M13 A3002 RMK A01 T10811134  RH  067%=      5-min Rain = 0
KRLS 101210Z 01010KT M08/M14 A3002 RMK A01 T10821135  RH  067%=      5-min Rain = 0
KRLS 101215Z 01012KT M08/M13 A3002 RMK A01 T10811133  RH  067%=      5-min Rain = 0
KRLS 101220Z 01011KT M08/M13 A3002 RMK A01 T10801133  RH  067%=      5-min Rain = 0
KRLS 101225Z 01012KT M08/M13 A3002 RMK A01 T10811132  RH  067%=      5-min Rain = 0
KRLS 101230Z 01011KT M08/M13 A3002 RMK A01 T10811132  RH  067%=      5-min Rain = 0
KRLS 101235Z 01013KT M08/M13 A3002 RMK A01 T10811132  RH  068%=      5-min Rain = 0
KRLS 101240Z 01010KT M08/M13 A3002 RMK A01 T10811132  RH  068%=      5-min Rain = 0
KRLS 101245Z 01011KT M08/M13 A3002 RMK A01 T10811132  RH  068%=      5-min Rain = 0
KRLS 101250Z 01011G16KT M08/M13 A3002 RMK A01 T10811132  RH  068%=      5-min Rain = 0
KRLS 101255Z 01010G18KT M08/M13 A3002 RMK A01 T10821132  RH  068%=      5-min Rain = 0
KRLS 101300Z 01013KT M08/M13 A3002 RMK A01 T10811131  RH  068%=      5-min Rain = 0
KRLS 101305Z 01010G17KT M08/M13 A3002 RMK A01 T10821132  RH  068%=      5-min Rain = 0
KRLS 101310Z 01011KT M08/M13 A3002 RMK A01 T10821132  RH  068%=      5-min Rain = 0
KRLS 101315Z 01012KT M08/M13 A3002 RMK A01 T10821132  RH  068%=      5-min Rain = 0
KRLS 101320Z 01012KT M08/M13 A3002 RMK A01 T10821131  RH  068%=      5-min Rain = 0
KRLS 101325Z 01012KT M08/M13 A3003 RMK A01 T10821132  RH  068%=      5-min Rain = 0
KRLS 101330Z 01010KT M08/M13 A3003 RMK A01 T10831132  RH  068%=      5-min Rain = 0
KRLS 101335Z 01012KT M08/M13 A3002 RMK A01 T10821132  RH  069%=      5-min Rain = 0
KRLS 101340Z 01012KT M08/M13 A3002 RMK A01 T10821132  RH  068%=      5-min Rain = 0
KRLS 101345Z 01012G17KT M08/M13 A3003 RMK A01 T10821131  RH  068%=      5-min Rain = 0
KRLS 101350Z 01011G16KT M08/M13 A3003 RMK A01 T10821132  RH  068%=      5-min Rain = 0
KRLS 101355Z 01012KT M08/M13 A3003 RMK A01 T10811131  RH  068%=      5-min Rain = 0
KRLS 101400Z 01011KT M08/M13 A3003 RMK A01 T10801131  RH  068%=      5-min Rain = 0
KRLS 101405Z 01011G17KT M08/M13 A3003 RMK A01 T10791131  RH  067%=      5-min Rain = 0
KRLS 101410Z 01012KT M08/M13 A3003 RMK A01 T10781131  RH  067%=      5-min Rain = 0
KRLS 101415Z 01012G18KT M08/M13 A3003 RMK A01 T10781130  RH  067%=      5-min Rain = 0
KRLS 101420Z 01012KT M08/M13 A3003 RMK A01 T10771130  RH  067%=      5-min Rain = 0
KRLS 101425Z 01013KT M08/M13 A3003 RMK A01 T10751129  RH  066%=      5-min Rain = 0
KRLS 101430Z 01012G17KT M08/M13 A3003 RMK A01 T10751130  RH  066%=      5-min Rain = 0
KRLS 101435Z 01013KT M07/M13 A3003 RMK A01 T10741129  RH  065%=      5-min Rain = 0
KRLS 101440Z 01013G18KT M07/M13 A3003 RMK A01 T10731129  RH  065%=      5-min Rain = 0
KRLS 101445Z 01013KT M07/M13 A3003 RMK A01 T10711128  RH  065%=      5-min Rain = 0
KRLS 101450Z 01012KT M07/M13 A3003 RMK A01 T10691128  RH  064%=      5-min Rain = 0
KRLS 101455Z 01012G17KT M07/M13 A3002 RMK A01 T10671127  RH  063%=      5-min Rain = 0
KRLS 101500Z 01012G17KT M07/M13 A3002 RMK A01 T10661127  RH  063%=      5-min Rain = 0
KRLS 101505Z 01013KT M07/M13 A3002 RMK A01 T10651127  RH  062%=      5-min Rain = 0
KRLS 101510Z 01012G17KT M06/M13 A3002 RMK A01 T10631126  RH  062%=      5-min Rain = 0
KRLS 101515Z 01014KT M06/M13 A3002 RMK A01 T10631126  RH  062%=      5-min Rain = 0
KRLS 101520Z 02014KT M06/M13 A3002 RMK A01 T10611126  RH  061%=      5-min Rain = 0
KRLS 101525Z 02014KT M06/M12 A3002 RMK A01 T10581124  RH  060%=      5-min Rain = 0
KRLS 101530Z 02014KT M06/M13 A3002 RMK A01 T10571125  RH  060%=      5-min Rain = 0
KRLS 101535Z 02013KT M06/M12 A3002 RMK A01 T10561124  RH  060%=      5-min Rain = 0
KRLS 101540Z 02015G20KT M06/M13 A3002 RMK A01 T10551125  RH  059%=      5-min Rain = 0
KRLS 101545Z 02014KT M05/M12 A3002 RMK A01 T10521123  RH  059%=      5-min Rain = 0
KRLS 101550Z 01013G20KT M05/M12 A3002 RMK A01 T10481122  RH  057%=      5-min Rain = 0
KRLS 101555Z 01012KT M05/M12 A3002 RMK A01 T10481123  RH  057%=      5-min Rain = 0
KRLS 101600Z 01013KT M05/M12 A3002 RMK A01 T10471123  RH  056%=      5-min Rain = 0
KRLS 101605Z 02014G20KT M05/M12 A3002 RMK A01 T10451122  RH  056%=      5-min Rain = 0
KRLS 101610Z 01013G18KT M04/M12 A3002 RMK A01 T10431121  RH  055%=      5-min Rain = 0
KRLS 101615Z 02013G18KT M04/M12 A3002 RMK A01 T10411121  RH  055%=      5-min Rain = 0
KRLS 101620Z 02013KT M04/M12 A3002 RMK A01 T10411121  RH  054%=      5-min Rain = 0
KRLS 101625Z 01012G17KT M04/M12 A3002 RMK A01 T10391120  RH  054%=      5-min Rain = 0
KRLS 101630Z 00012G17KT M04/M12 A3002 RMK A01 T10391121  RH  054%=      5-min Rain = 0
KRLS 101635Z 36011KT M04/M12 A3003 RMK A01 T10361119  RH  053%=      5-min Rain = 0
KRLS 101640Z 01010G15KT M03/M12 A3002 RMK A01 T10331119  RH  052%=      5-min Rain = 0
KRLS 101645Z 02010KT M03/M12 A3002 RMK A01 T10321118  RH  052%=      5-min Rain = 0
KRLS 101650Z 02010KT M03/M12 A3002 RMK A01 T10301119  RH  051%=      5-min Rain = 0
KRLS 101655Z 01009G15KT M03/M12 A3002 RMK A01 T10261117  RH  050%=      5-min Rain = 0
KRLS 101700Z 02009KT M02/M12 A3002 RMK A01 T10221115  RH  049%=      5-min Rain = 0
KRLS 101705Z 00009KT M02/M12 A3002 RMK A01 T10241118  RH  049%=      5-min Rain = 0
KRLS 101710Z 01010KT M02/M12 A3002 RMK A01 T10231117  RH  049%=      5-min Rain = 0
KRLS 101715Z 03010KT M02/M11 A3002 RMK A01 T10171114  RH  048%=      5-min Rain = 0
KRLS 101720Z 02009G14KT M02/M12 A3001 RMK A01 T10171115  RH  048%=      5-min Rain = 0
KRLS 101725Z 03011KT M02/M11 A3001 RMK A01 T10151114  RH  047%=      5-min Rain = 0
KRLS 101730Z 02009KT M02/M12 A30 RMK A01 T10151115  RH  047%=      5-min Rain = 0
KRLS 101735Z 02009KT M01/M11 A30 RMK A01 T10101112  RH  046%=      5-min Rain = 0
KRLS 101740Z 02006G11KT M01/M11 A30 RMK A01 T10111114  RH  046%=      5-min Rain = 0
KRLS 101745Z 02008KT M01/M11 A30 RMK A01 T10091113  RH  046%=      5-min Rain = 0
KRLS 101750Z 02009KT M01/M11 A30 RMK A01 T10071112  RH  045%=      5-min Rain = 0
KRLS 101755Z 01007G12KT 00/M11 A30 RMK A01 T00011111  RH  043%=      5-min Rain = 0
KRLS 101800Z 03007KT 00/M11 A2999 RMK A01 T00011111  RH  043%=      5-min Rain = 0
KRLS 101805Z 03007KT M00/M11 A2999 RMK A01 T10021113  RH  043%=      5-min Rain = 0
KRLS 101810Z 03007KT M00/M11 A2999 RMK A01 T10041111  RH  045%=      5-min Rain = 0
KRLS 101815Z 01006KT M01/M11 A2998 RMK A01 T10051112  RH  045%=      5-min Rain = 0
KRLS 101820Z 03007G12KT 01/M11 A2998 RMK A01 T00061108  RH  043%=      5-min Rain = 0
KRLS 101825Z 02007KT 00/M11 A2997 RMK A01 T00041111  RH  042%=      5-min Rain = 0
KRLS 101830Z 03007KT 00/M11 A2997 RMK A01 T00021109  RH  043%=      5-min Rain = 0
KRLS 101835Z 07006KT 01/M11 A2997 RMK A01 T00071109  RH  042%=      5-min Rain = 0
KRLS 101840Z 04006KT 00/M11 A2997 RMK A01 T00021110  RH  043%=      5-min Rain = 0
KRLS 101845Z 06003KT 00/11 A2997 RMK A01 T00-00-110  RH  044%=      5-min Rain = 0
KRLS 101850Z 34005KT 00/M11 A2997 RMK A01 T00041108  RH  043%=      5-min Rain = 0
KRLS 101855Z 01006KT 01/M11 A2996 RMK A01 T00091107  RH  042%=      5-min Rain = 0
KRLS 101900Z 03005KT 01/M11 A2996 RMK A01 T00081109  RH  042%=      5-min Rain = 0
KRLS 101905Z 05006KT 01/M11 A2995 RMK A01 T00061108  RH  043%=      5-min Rain = 0
KRLS 101910Z 03006KT 01/M11 A2995 RMK A01 T00091107  RH  042%=      5-min Rain = 0
KRLS 101915Z 05007KT 01/M11 A2994 RMK A01 T00141108  RH  041%=      5-min Rain = 0
KRLS 101920Z 07005KT 01/M11 A2994 RMK A01 T00111108  RH  041%=      5-min Rain = 0
KRLS 101925Z 03005KT 01/M11 A2993 RMK A01 T00121107  RH  041%=      5-min Rain = 0
KRLS 101930Z 02006KT 02/M10 A2993 RMK A01 T00181104  RH  040%=      5-min Rain = 0
KRLS 101935Z 35005KT 02/M11 A2992 RMK A01 T00181107  RH  039%=      5-min Rain = 0
KRLS 101940Z 01004KT 02/M10 A2992 RMK A01 T00211104  RH  040%=      5-min Rain = 0
KRLS 101945Z 04003KT 02/M10 A2991 RMK A01 T00231104  RH  039%=      5-min Rain = 0
KRLS 101950Z 04005KT 02/M11 A2991 RMK A01 T00181105  RH  040%=      5-min Rain = 0
KRLS 101955Z 07004G9KT 02/M10 A2991 RMK A01 T00231102  RH  040%=      5-min Rain = 0
KRLS 102000Z 07004KT 02/M11 A299 RMK A01 T00201105  RH  040%=      5-min Rain = 0
KRLS 102005Z 07006KT 02/M10 A299 RMK A01 T00171104  RH  041%=      5-min Rain = 0
KRLS 102010Z 09006KT 02/M10 A299 RMK A01 T00151104  RH  041%=      5-min Rain = 0
KRLS 102015Z 10003G8KT 02/M10 A2989 RMK A01 T00211101  RH  041%=      5-min Rain = 0
KRLS 102020Z 08005KT 02/M10 A2989 RMK A01 T00211103  RH  040%=      5-min Rain = 0
KRLS 102025Z 11002KT 02/M10 A2989 RMK A01 T00181102  RH  041%=      5-min Rain = 0
KRLS 102030Z 12004KT 02/M10 A2988 RMK A01 T00191102  RH  041%=      5-min Rain = 0
KRLS 102035Z 12005KT 02/M10 A2988 RMK A01 T00231099  RH  040%=      5-min Rain = 0
KRLS 102040Z 17002KT 03/M10 A2988 RMK A01 T00281099  RH  039%=      5-min Rain = 0
KRLS 102045Z 14003KT 03/M10 A2988 RMK A01 T00261101  RH  039%=      5-min Rain = 0
KRLS 102050Z 12005KT 02/M10 A2987 RMK A01 T00221102  RH  040%=      5-min Rain = 0
KRLS 102055Z 08005KT 02/M10 A2987 RMK A01 T00221101  RH  040%=      5-min Rain = 0
KRLS 102100Z 09004KT 02/M10 A2987 RMK A01 T00231101  RH  040%=      5-min Rain = 0
KRLS 102105Z 12004KT 02/M10 A2987 RMK A01 T00221102  RH  040%=      5-min Rain = 0
KRLS 102110Z 13003KT 02/M10 A2987 RMK A01 T00231101  RH  040%=      5-min Rain = 0
KRLS 102115Z 14002KT 03/M10 A2987 RMK A01 T00251100  RH  040%=      5-min Rain = 0
KRLS 102120Z 16001KT 03/M10 A2987 RMK A01 T00261100  RH  040%=      5-min Rain = 0
KRLS 102125Z 03002KT 03/M10 A2987 RMK A01 T00261099  RH  040%=      5-min Rain = 0
KRLS 102130Z 04003KT 02/M10 A2987 RMK A01 T00241100  RH  040%=      5-min Rain = 0
KRLS 102135Z 01001KT 03/M10 A2987 RMK A01 T00291097  RH  039%=      5-min Rain = 0
KRLS 102140Z 03002KT 03/M10 A2987 RMK A01 T00311099  RH  038%=      5-min Rain = 0
KRLS 102145Z 07004KT 03/M10 A2987 RMK A01 T00261101  RH  039%=      5-min Rain = 0
KRLS 102150Z 02001KT 03/M10 A2987 RMK A01 T00281098  RH  039%=      5-min Rain = 0
KRLS 102155Z 11002KT 03/M10 A2987 RMK A01 T00341099  RH  038%=      5-min Rain = 0
KRLS 102200Z 12004KT 03/M10 A2987 RMK A01 T00291101  RH  038%=      5-min Rain = 0
KRLS 102205Z 11002KT 03/M10 A2987 RMK A01 T00301099  RH  038%=      5-min Rain = 0
KRLS 102210Z 11002KT 03/M10 A2987 RMK A01 T00331099  RH  038%=      5-min Rain = 0
KRLS 102215Z 10004KT 04/M10 A2986 RMK A01 T00391098  RH  037%=      5-min Rain = 0
KRLS 102220Z 11005KT 03/M10 A2986 RMK A01 T00331100  RH  037%=      5-min Rain = 0
KRLS 102225Z 07002KT 03/M10 A2986 RMK A01 T00321099  RH  038%=      5-min Rain = 0
KRLS 102230Z 07003KT 03/M10 A2986 RMK A01 T00341100  RH  037%=      5-min Rain = 0
KRLS 102235Z 05001KT 03/M10 A2986 RMK A01 T00301100  RH  038%=      5-min Rain = 0
KRLS 102240Z 14001KT 03/M10 A2985 RMK A01 T00321099  RH  038%=      5-min Rain = 0
KRLS 102245Z 18001KT 03/M10 A2985 RMK A01 T00331100  RH  038%=      5-min Rain = 0
KRLS 102250Z 09004KT 03/M10 A2985 RMK A01 T00311100  RH  038%=      5-min Rain = 0
KRLS 102255Z 08004KT 03/M10 A2985 RMK A01 T00291100  RH  038%=      5-min Rain = 0
KRLS 102300Z 08005KT 03/M10 A2985 RMK A01 T00301100  RH  038%=      5-min Rain = 0
KRLS 102305Z 08004KT 03/M10 A2984 RMK A01 T00301100  RH  038%=      5-min Rain = 0
KRLS 102310Z 09004KT 03/M10 A2984 RMK A01 T00311100  RH  038%=      5-min Rain = 0
KRLS 102315Z 11006KT 03/M10 A2984 RMK A01 T00301101  RH  038%=      5-min Rain = 0
KRLS 102320Z 10006KT 03/M10 A2984 RMK A01 T00281101  RH  039%=      5-min Rain = 0
KRLS 102325Z 12007KT 03/M10 A2983 RMK A01 T00281102  RH  038%=      5-min Rain = 0
KRLS 102330Z 12006KT 03/M10 A2983 RMK A01 T00281103  RH  038%=      5-min Rain = 0
KRLS 102335Z 11008KT 03/M10 A2983 RMK A01 T00311103  RH  037%=      5-min Rain = 0
KRLS 102340Z 11008KT 03/M11 A2983 RMK A01 T00291105  RH  037%=      5-min Rain = 0
KRLS 102345Z 12007KT 03/M11 A2983 RMK A01 T00271105  RH  038%=      5-min Rain = 0
KRLS 102350Z 12008KT 03/M11 A2983 RMK A01 T00281106  RH  037%=      5-min Rain = 0
KRLS 102355Z 11007KT 03/M11 A2984 RMK A01 T00271106  RH  037%=      5-min Rain = 0
KRLS 110000Z 10008KT 03/M11 A2984 RMK A01 T00251107  RH  038%=      5-min Rain = 0
KRLS 110005Z 09007KT 02/M11 A2985 RMK A01 T00231107  RH  038%=      5-min Rain = 0
KRLS 110010Z 10007KT 02/M11 A2985 RMK A01 T00211108  RH  038%=      5-min Rain = 0
KRLS 110015Z 08010KT 02/M11 A2985 RMK A01 T00161112  RH  039%=      5-min Rain = 0
KRLS 110020Z 08010KT 01/M11 A2984 RMK A01 T00091113  RH  040%=      5-min Rain = 0
KRLS 110025Z 09008KT 01/M11 A2984 RMK A01 T00061114  RH  041%=      5-min Rain = 0
KRLS 110030Z 09008KT 00/M12 A2984 RMK A01 T00041115  RH  041%=      5-min Rain = 0
KRLS 110035Z 11010KT 00/M12 A2985 RMK A01 T00041115  RH  041%=      5-min Rain = 0
KRLS 110040Z 11011KT 00/M12 A2984 RMK A01 T00031117  RH  041%=      5-min Rain = 0
KRLS 110045Z 11009KT 00/M12 A2984 RMK A01 T00011118  RH  041%=      5-min Rain = 0
KRLS 110050Z 11010KT M00/M12 A2984 RMK A01 T10011118  RH  042%=      5-min Rain = 0
KRLS 110055Z 09009KT M00/M12 A2985 RMK A01 T10041119  RH  042%=      5-min Rain = 0
KRLS 110100Z 07011KT M01/M12 A2985 RMK A01 T10101119  RH  044%=      5-min Rain = 0
KRLS 110105Z 07010KT M01/M12 A2986 RMK A01 T10121120  RH  044%=      5-min Rain = 0
KRLS 110110Z 07010KT M01/M12 A2986 RMK A01 T10131120  RH  045%=      5-min Rain = 0
KRLS 110115Z 07010KT M02/M12 A2987 RMK A01 T10151121  RH  045%=      5-min Rain = 0
KRLS 110120Z 08010KT M02/M12 A2986 RMK A01 T10181120  RH  046%=      5-min Rain = 0
KRLS 110125Z 08010KT M02/M12 A2986 RMK A01 T10191120  RH  047%=      5-min Rain = 0
KRLS 110130Z 07010KT M02/M12 A2987 RMK A01 T10211120  RH  047%=      5-min Rain = 0
KRLS 110135Z 07009KT M02/M12 A2987 RMK A01 T10231121  RH  048%=      5-min Rain = 0
KRLS 110140Z 07008KT M03/M12 A2987 RMK A01 T10251122  RH  048%=      5-min Rain = 0
KRLS 110145Z 07008KT M03/M12 A2988 RMK A01 T10261121  RH  049%=      5-min Rain = 0
KRLS 110150Z 07009KT M03/M12 A2989 RMK A01 T10271121  RH  049%=      5-min Rain = 0
KRLS 110155Z 06008KT M03/M12 A2989 RMK A01 T10281123  RH  049%=      5-min Rain = 0
KRLS 110200Z 06007KT M03/M12 A2989 RMK A01 T10291124  RH  049%=      5-min Rain = 0
KRLS 110205Z 06008KT M03/M12 A2989 RMK A01 T10291123  RH  049%=      5-min Rain = 0
KRLS 110210Z 06009KT M03/M12 A2989 RMK A01 T10281122  RH  049%=      5-min Rain = 0
KRLS 110215Z 06008KT M03/M12 A299 RMK A01 T10291122  RH  049%=      5-min Rain = 0
KRLS 110220Z 05008KT M03/M12 A2991 RMK A01 T10291123  RH  049%=      5-min Rain = 0
KRLS 110225Z 05009KT M03/M12 A2991 RMK A01 T10291124  RH  048%=      5-min Rain = 0
KRLS 110230Z 05010G15KT M03/M12 A2991 RMK A01 T10301124  RH  049%=      5-min Rain = 0
KRLS 110235Z 05014KT M03/M13 A2992 RMK A01 T10301125  RH  049%=      5-min Rain = 0
KRLS 110240Z 05012KT M03/M13 A2992 RMK A01 T10321127  RH  049%=      5-min Rain = 0
KRLS 110245Z 05015KT M03/M13 A2993 RMK A01 T10331128  RH  049%=      5-min Rain = 0
KRLS 110250Z 06013G18KT M04/M13 A2993 RMK A01 T10361129  RH  049%=      5-min Rain = 0
KRLS 110255Z 05013KT M04/M13 A2993 RMK A01 T10371129  RH  049%=      5-min Rain = 0
KRLS 110300Z 05012KT M04/M13 A2994 RMK A01 T10381130  RH  050%=      5-min Rain = 0
KRLS 110305Z 05014KT M04/M13 A2994 RMK A01 T10401130  RH  050%=      5-min Rain = 0
KRLS 110310Z 05012KT M04/M13 A2994 RMK A01 T10411131  RH  051%=      5-min Rain = 0
KRLS 110315Z 06011KT M04/M13 A2994 RMK A01 T10431131  RH  051%=      5-min Rain = 0
KRLS 110320Z 06009KT M04/M13 A2995 RMK A01 T10441132  RH  051%=      5-min Rain = 0
KRLS 110325Z 06009KT M05/M13 A2996 RMK A01 T10451132  RH  051%=      5-min Rain = 0
KRLS 110330Z 06010KT M05/M13 A2996 RMK A01 T10461132  RH  052%=      5-min Rain = 0
KRLS 110335Z 06010KT M05/M13 A2996 RMK A01 T10461133  RH  051%=      5-min Rain = 0
KRLS 110340Z 06010KT M05/M13 A2996 RMK A01 T10481134  RH  052%=      5-min Rain = 0
KRLS 110345Z 06010KT M05/M13 A2996 RMK A01 T10481134  RH  052%=      5-min Rain = 0
KRLS 110350Z 06008KT M05/M14 A2996 RMK A01 T10501135  RH  052%=      5-min Rain = 0
KRLS 110355Z 05010KT M05/M14 A2997 RMK A01 T10501135  RH  052%=      5-min Rain = 0
KRLS 110400Z 05014KT M05/M14 A2997 RMK A01 T10511135  RH  052%=      5-min Rain = 0
KRLS 110405Z 05015KT M05/M14 A2997 RMK A01 T10511135  RH  053%=      5-min Rain = 0
KRLS 110410Z 05015KT M05/M14 A2997 RMK A01 T10531136  RH  053%=      5-min Rain = 0
KRLS 110415Z 05016G22KT M05/M14 A2997 RMK A01 T10541137  RH  053%=      5-min Rain = 0
KRLS 110420Z 04014KT M06/M14 A2998 RMK A01 T10561139  RH  053%=      5-min Rain = 0
KRLS 110425Z 04015KT M06/M14 A2998 RMK A01 T10571140  RH  053%=      5-min Rain = 0
KRLS 110430Z 04014KT M06/M14 A2999 RMK A01 T10591141  RH  053%=      5-min Rain = 0
KRLS 110435Z 04015G22KT M06/M14 A2999 RMK A01 T10601142  RH  053%=      5-min Rain = 0
KRLS 110440Z 05017KT M07/M14 A2999 RMK A01 T10651144  RH  054%=      5-min Rain = 0
KRLS 110445Z 05016KT M07/M14 A2999 RMK A01 T10671144  RH  055%=      5-min Rain = 0
KRLS 110450Z 04014KT M07/M14 A30 RMK A01 T10681144  RH  056%=      5-min Rain = 0
KRLS 110455Z 04015G20KT M07/M14 A2999 RMK A01 T10691144  RH  056%=      5-min Rain = 0
KRLS 110500Z 04014G19KT M07/M14 A30 RMK A01 T10701143  RH  057%=      5-min Rain = 0
KRLS 110505Z 03014G19KT M07/M14 A30 RMK A01 T10701142  RH  058%=      5-min Rain = 0
KRLS 110510Z 03015KT M07/M14 A30 RMK A01 T10711141  RH  058%=      5-min Rain = 0
KRLS 110515Z 03015G20KT M07/M14 A30 RMK A01 T10711141  RH  058%=      5-min Rain = 0
KRLS 110520Z 03014G19KT M07/M14 A30 RMK A01 T10711141  RH  058%=      5-min Rain = 0
KRLS 110525Z 03016KT M07/M14 A30 RMK A01 T10711140  RH  059%=      5-min Rain = 0
KRLS 110530Z 03015KT M07/M14 A2999 RMK A01 T10711140  RH  059%=      5-min Rain = 0
KRLS 110535Z 03012KT M07/M14 A2999 RMK A01 T10721140  RH  059%=      5-min Rain = 0
KRLS 110540Z 03013KT M07/M14 A2999 RMK A01 T10721140  RH  059%=      5-min Rain = 0
KRLS 110545Z 03013KT M07/M14 A30 RMK A01 T10721140  RH  059%=      5-min Rain = 0
KRLS 110550Z 03011KT M07/M14 A30 RMK A01 T10731140  RH  059%=      5-min Rain = 0
KRLS 110555Z 02011KT M07/M14 A3001 RMK A01 T10731140  RH  059%=      5-min Rain = 0

Page generated in 0.0267 seconds.